Colonie, NY

7:42 PM EST on January 31, 2015 (GMT -0500)
Lisha Kill Creek | Change Station
CLOSE
Current Station
Personal Weather Station
Location: New York, NY
Elevation: 275 ft
Nearby Weather Stations
Active Advisory: Winter Storm Warning

Elev 275 ft 42.78 °N, 73.86 °W | Updated 8 seconds ago

Partly Cloudy
Partly Cloudy
12.8 °F
Feels Like 13 °F
N
1.0
Wind Variable Wind from NNW
Gusts 3.0 mph

Today
High -- | Low -- °F
--% Chance of Precip.
Yesterday
High -- | Low -- °F
Precip. -- in
7:10 AM 5:06 PM
Waxing Gibbous, 92% visible
Pressure 30.21 in
Visibility 10.0 miles
Clouds Few 3500 ft
Windchill 13 °F
Dew Point 2 °F
Humidity 62%
Rainfall 0.00 in
Snow Depth Not available.
UV 0 out of 12
Pollen .10 out of 12
Air Quality Not available.
Flu Activity Not available.
METAR KALB 312351Z 30008KT 10SM FEW035 M11/M18 A3018 RMK AO2 SLP228 4/003 T11061183 11100 21117 51018

More Conditions Fewer Conditions

Pressure 30.21 in
Visibility 10.0 miles
Clouds Few 3500 ft
Windchill 13 °F
Dew Point 2 °F
Humidity 62%
Rainfall 0.00 in
Snow Depth Not available.
UV 0 out of 12
Pollen .10 out of 12
Air Quality Not available.
Flu Activity Not available.
METAR KALB 312351Z 30008KT 10SM FEW035 M11/M18 A3018 RMK AO2 SLP228 4/003 T11061183 11100 21117 51018

More Conditions Fewer Conditions

10-Day Weather Forecast

Almanac

Astronomy

Jan. 31, 2015 Rise Set
Actual Time
Civil Twilight
Nautical Twilight
Astronomical Twilight
Moon
Length of Visible Light
Length of Day
Tomorrow will be .
, % of the Moon is Illuminated

Today's Extremes

State Highs State Lows

Community

WunderPhotos

Upload Photos

1,792,265 photos uploaded!

WunderBlogs® & News

Nearby

Air Quality

  Air Quality AQ Index Pollutant
Not available.

Snow Depth

Station Depth Elevation

Earthquake Activity

City Distance Mag. Time & Date
Minimum magnitude displayed is 2.5.

Coastal Water Temperatures

Place Temperature

Nearby Weather Stations